Time;durP1;ratioP1;P1;durP2;ratioP2;P2;SDS_P1;SDS_P2;PMS_P1;PMS_P2;Temp;Humidity;BMP_temperature;BMP_pressure;BME280_temperature;BME280_humidity;BME280_pressure;Samples;Min_cycle;Max_cycle;Signal;HPM_P1;HPM_P2
2021/11/14 00:02:17;;;;;;;120.05;46.78;;;9.90;99.90;;;;;;5003914;28;20038;-67
2021/11/14 00:04:46;;;;;;;124.75;49.05;;;9.90;99.90;;;;;;5000742;28;20038;-66
2021/11/14 00:07:14;;;;;;;97.20;44.78;;;9.90;99.90;;;;;;5007172;28;20057;-66
2021/11/14 00:09:39;;;;;;;94.10;44.50;;;9.90;99.90;;;;;;4998701;28;20355;-66
2021/11/14 00:12:06;;;;;;;80.05;41.33;;;9.90;99.90;;;;;;5007182;28;20600;-66
2021/11/14 00:14:31;;;;;;;98.05;45.42;;;9.90;99.90;;;;;;5004375;28;20064;-66
2021/11/14 00:16:57;;;;;;;93.40;43.95;;;9.90;99.90;;;;;;5001196;28;20038;-67
2021/11/14 00:19:23;;;;;;;110.65;45.75;;;9.90;99.90;;;;;;5001452;28;20404;-67
2021/11/14 00:21:51;;;;;;;111.55;46.28;;;9.90;99.90;;;;;;5007898;28;20544;-67
2021/11/14 00:24:17;;;;;;;95.95;45.25;;;9.90;99.90;;;;;;4998133;28;20483;-66
2021/11/14 00:26:43;;;;;;;112.30;46.70;;;9.80;99.90;;;;;;5003586;28;20041;-66
2021/11/14 00:29:09;;;;;;;87.03;41.55;;;9.90;99.90;;;;;;4995431;28;20029;-66
2021/11/14 00:31:36;;;;;;;102.40;46.22;;;9.90;99.90;;;;;;5001460;28;20043;-66
2021/11/14 00:34:05;;;;;;;98.65;44.97;;;9.90;99.90;;;;;;5004082;28;20057;-66
2021/11/14 00:36:33;;;;;;;91.70;42.63;;;9.80;99.90;;;;;;4995564;28;20053;-66
2021/11/14 00:38:59;;;;;;;105.75;46.95;;;9.80;99.90;;;;;;5007192;28;20069;-66
2021/11/14 00:41:25;;;;;;;115.32;46.85;;;9.80;99.90;;;;;;5022324;28;20049;-67
2021/11/14 00:43:52;;;;;;;112.20;45.30;;;9.80;99.90;;;;;;5022074;28;20493;-66
2021/11/14 00:46:19;;;;;;;106.95;48.05;;;9.80;99.90;;;;;;5020259;28;20120;-67
2021/11/14 00:48:44;;;;;;;112.30;49.78;;;9.80;99.90;;;;;;5023630;28;20045;-66
2021/11/14 00:51:13;;;;;;;125.75;52.13;;;9.80;99.90;;;;;;5002052;28;20080;-67
2021/11/14 00:53:38;;;;;;;119.32;50.38;;;9.80;99.90;;;;;;5023208;28;20029;-66
2021/11/14 00:56:05;;;;;;;115.43;50.13;;;9.90;99.90;;;;;;5022123;28;20493;-66
2021/11/14 00:58:31;;;;;;;127.80;51.80;;;9.80;99.90;;;;;;5019677;28;20092;-66
2021/11/14 01:00:57;;;;;;;106.95;49.22;;;9.80;99.90;;;;;;5022570;28;20045;-66
2021/11/14 01:03:23;;;;;;;125.30;53.83;;;9.80;99.90;;;;;;5022227;28;20124;-66
2021/11/14 01:05:50;;;;;;;105.07;48.08;;;9.80;99.90;;;;;;5020200;28;20128;-66
2021/11/14 01:08:17;;;;;;;134.30;52.05;;;9.80;99.90;;;;;;5003395;28;20052;-66
2021/11/14 01:10:49;;;;;;;111.10;50.45;;;9.80;99.90;;;;;;4999419;28;20049;-66
2021/11/14 01:13:15;;;;;;;114.93;51.67;;;9.80;99.90;;;;;;5007770;28;20095;-66
2021/11/14 01:15:42;;;;;;;104.80;47.85;;;9.80;99.90;;;;;;5003314;28;20049;-66
2021/11/14 01:18:08;;;;;;;108.78;50.50;;;9.80;99.90;;;;;;5005719;28;20370;-66
2021/11/14 01:20:37;;;;;;;138.30;52.88;;;9.80;99.90;;;;;;5027074;28;20045;-66
2021/11/14 01:23:05;;;;;;;113.55;50.55;;;9.80;99.90;;;;;;5020991;28;20049;-65
2021/11/14 01:25:31;;;;;;;111.45;49.70;;;9.80;99.90;;;;;;5025322;28;20042;-66
2021/11/14 01:27:57;;;;;;;103.68;49.63;;;9.80;99.90;;;;;;5021303;28;20041;-66
2021/11/14 01:30:28;;;;;;;101.90;48.78;;;9.80;99.90;;;;;;5023029;28;20052;-65
2021/11/14 01:32:55;;;;;;;104.63;47.90;;;9.80;99.90;;;;;;5021212;28;20073;-66
2021/11/14 01:35:21;;;;;;;103.53;49.00;;;9.80;99.90;;;;;;5005561;28;20045;-66
2021/11/14 01:37:48;;;;;;;88.50;44.45;;;9.80;99.90;;;;;;4998818;28;20406;-66
2021/11/14 01:40:21;;;;;;;108.32;49.92;;;9.80;99.90;;;;;;5025476;28;20054;-66
2021/11/14 01:42:48;;;;;;;85.97;44.33;;;9.80;99.90;;;;;;5018384;28;20049;-66
2021/11/14 01:45:15;;;;;;;99.47;45.72;;;9.80;99.90;;;;;;5004662;28;20423;-66
2021/11/14 01:47:40;;;;;;;86.72;44.15;;;9.80;99.90;;;;;;5021188;28;20041;-66
2021/11/14 01:50:09;;;;;;;88.93;45.42;;;9.70;99.90;;;;;;5022896;28;20036;-66
2021/11/14 01:52:35;;;;;;;87.32;44.40;;;9.80;99.90;;;;;;4993617;28;20041;-66
2021/11/14 01:55:02;;;;;;;84.22;44.42;;;9.80;99.90;;;;;;5024949;28;20034;-66
2021/11/14 01:57:28;;;;;;;86.25;43.28;;;9.70;99.90;;;;;;5015545;28;20436;-66
2021/11/14 01:59:54;;;;;;;83.93;43.67;;;9.80;99.90;;;;;;5008072;28;20410;-66
2021/11/14 02:02:20;;;;;;;84.72;42.90;;;9.80;99.90;;;;;;5008144;28;20056;-66
2021/11/14 02:04:46;;;;;;;84.78;43.70;;;9.80;99.90;;;;;;5016335;28;20060;-66
2021/11/14 02:07:15;;;;;;;83.15;42.60;;;9.80;99.90;;;;;;5027100;28;20025;-66
2021/11/14 02:09:42;;;;;;;78.60;41.63;;;9.80;99.90;;;;;;5021996;28;20046;-66
2021/11/14 02:12:08;;;;;;;87.95;43.22;;;9.80;99.90;;;;;;5018097;28;20573;-66
2021/11/14 02:14:34;;;;;;;74.50;40.83;;;9.80;99.90;;;;;;5001884;28;20054;-66
2021/11/14 02:17:01;;;;;;;74.43;38.50;;;9.80;99.90;;;;;;5021824;28;20557;-66
2021/11/14 02:19:26;;;;;;;72.50;41.38;;;9.80;99.90;;;;;;5017592;28;20029;-66
2021/11/14 02:21:53;;;;;;;73.57;39.63;;;9.80;99.90;;;;;;5027126;28;20033;-66
2021/11/14 02:24:20;;;;;;;69.28;37.15;;;9.80;99.90;;;;;;5014095;28;20041;-66
2021/11/14 02:26:47;;;;;;;70.47;39.97;;;9.90;99.90;;;;;;5008758;28;20056;-66
2021/11/14 02:29:13;;;;;;;71.75;38.78;;;9.80;99.90;;;;;;5019512;28;20044;-66
2021/11/14 02:31:40;;;;;;;59.58;35.22;;;9.80;99.90;;;;;;5003119;28;20042;-66
2021/11/14 02:34:06;;;;;;;60.00;35.95;;;9.80;99.90;;;;;;5020126;28;20060;-66
2021/11/14 02:36:32;;;;;;;55.88;34.95;;;9.80;99.90;;;;;;5011353;28;20041;-66
2021/11/14 02:38:58;;;;;;;62.47;36.67;;;9.80;99.90;;;;;;5026095;28;20077;-66
2021/11/14 02:41:24;;;;;;;51.78;33.47;;;9.80;99.90;;;;;;5031047;28;20080;-66
2021/11/14 02:43:51;;;;;;;55.53;34.58;;;9.80;99.90;;;;;;5002886;28;20033;-66
2021/11/14 02:46:17;;;;;;;51.80;34.53;;;9.80;99.90;;;;;;5007271;28;20443;-66
2021/11/14 02:48:44;;;;;;;50.83;33.58;;;9.80;99.90;;;;;;5011541;28;20037;-66
2021/11/14 02:51:16;;;;;;;56.20;34.10;;;9.80;99.90;;;;;;5019326;28;20397;-66
2021/11/14 02:53:42;;;;;;;51.10;34.50;;;9.80;99.90;;;;;;5031503;28;20375;-66
2021/11/14 02:56:09;;;;;;;53.92;34.65;;;9.70;99.90;;;;;;5006299;28;20041;-66
2021/11/14 02:58:38;;;;;;;58.03;34.55;;;9.80;99.90;;;;;;5028108;28;20518;-66
2021/11/14 03:01:08;;;;;;;52.83;34.05;;;9.80;99.90;;;;;;5004780;28;20056;-66
2021/11/14 03:03:35;;;;;;;48.75;33.80;;;9.80;99.90;;;;;;5026535;28;20103;-66
2021/11/14 03:06:01;;;;;;;54.88;34.72;;;9.70;99.90;;;;;;5022577;28;20044;-66
2021/11/14 03:08:28;;;;;;;53.13;34.90;;;9.70;99.90;;;;;;5026818;28;20116;-66
2021/11/14 03:10:53;;;;;;;54.85;34.90;;;9.70;99.90;;;;;;5021903;28;20037;-66
2021/11/14 03:13:23;;;;;;;51.65;35.63;;;9.70;99.90;;;;;;5028474;28;20037;-66
2021/11/14 03:15:54;;;;;;;51.15;34.40;;;9.70;99.90;;;;;;5023448;28;20503;-65
2021/11/14 03:18:20;;;;;;;52.58;35.95;;;9.70;99.90;;;;;;5007354;28;20041;-65
2021/11/14 03:20:48;;;;;;;53.05;35.22;;;9.70;99.90;;;;;;5025605;28;20041;-65
2021/11/14 03:23:16;;;;;;;47.53;33.55;;;9.70;99.90;;;;;;5007682;28;20111;-65
2021/11/14 03:25:43;;;;;;;44.20;31.48;;;9.60;99.90;;;;;;5004790;28;20061;-66
2021/11/14 03:28:09;;;;;;;43.17;33.10;;;9.60;99.90;;;;;;5027012;28;20516;-65
2021/11/14 03:30:35;;;;;;;46.78;34.65;;;9.60;99.90;;;;;;5009770;28;20060;-65
2021/11/14 03:33:03;;;;;;;51.20;36.08;;;9.60;99.90;;;;;;5005513;28;20037;-65
2021/11/14 03:35:42;;;;;;;45.65;33.13;;;9.50;99.90;;;;;;5027290;28;20072;-65
2021/11/14 03:38:10;;;;;;;49.88;34.58;;;9.60;99.90;;;;;;5019097;28;20124;-66
2021/11/14 03:40:36;;;;;;;52.53;34.42;;;9.50;99.90;;;;;;5025008;28;20171;-66
2021/11/14 03:43:03;;;;;;;50.92;34.80;;;9.60;99.90;;;;;;5019945;28;20518;-66
2021/11/14 03:45:29;;;;;;;48.28;34.30;;;9.50;99.90;;;;;;5024524;28;20076;-66
2021/11/14 03:47:54;;;;;;;52.88;35.00;;;9.50;99.90;;;;;;5018086;28;20402;-66
2021/11/14 03:50:20;;;;;;;49.55;34.83;;;9.50;99.90;;;;;;5028964;28;20132;-66
2021/11/14 03:52:46;;;;;;;51.92;34.08;;;9.50;99.90;;;;;;5020867;28;20030;-65
2021/11/14 03:55:13;;;;;;;51.50;35.25;;;9.40;99.90;;;;;;5011647;28;20096;-65
2021/11/14 03:57:41;;;;;;;50.50;33.13;;;9.40;99.90;;;;;;4999909;28;20452;-66
2021/11/14 04:00:14;;;;;;;49.25;32.92;;;9.40;99.90;;;;;;5026514;28;20091;-65
2021/11/14 04:02:40;;;;;;;52.63;34.55;;;9.40;99.90;;;;;;5005345;28;20112;-65
2021/11/14 04:05:06;;;;;;;51.75;34.80;;;9.40;99.90;;;;;;5025420;28;20141;-66
2021/11/14 04:07:33;;;;;;;51.50;33.70;;;9.30;99.90;;;;;;5019062;28;20035;-66
2021/11/14 04:09:58;;;;;;;57.15;33.97;;;9.30;99.90;;;;;;5008942;28;20121;-66
2021/11/14 04:12:24;;;;;;;54.90;34.00;;;9.30;99.90;;;;;;4989758;28;20133;-66
2021/11/14 04:14:50;;;;;;;57.65;34.70;;;9.30;99.90;;;;;;5020541;28;20045;-66
2021/11/14 04:17:15;;;;;;;58.67;35.70;;;9.30;99.90;;;;;;5007448;28;20446;-66
2021/11/14 04:19:41;;;;;;;58.75;34.40;;;9.30;99.90;;;;;;5020873;28;20120;-67
2021/11/14 04:22:07;;;;;;;60.08;35.50;;;9.30;99.90;;;;;;5029287;28;20382;-66
2021/11/14 04:24:33;;;;;;;66.65;37.60;;;9.30;99.90;;;;;;5015258;28;20029;-66
2021/11/14 04:26:58;;;;;;;67.63;37.42;;;9.30;99.90;;;;;;5024408;28;20116;-66
2021/11/14 04:29:24;;;;;;;66.68;37.30;;;9.20;99.90;;;;;;5022932;28;20040;-66
2021/11/14 04:31:50;;;;;;;70.55;38.05;;;9.30;99.90;;;;;;5023209;28;20398;-66
2021/11/14 04:34:15;;;;;;;69.35;36.67;;;9.30;99.90;;;;;;5019896;28;20037;-66
2021/11/14 04:36:41;;;;;;;67.15;35.67;;;9.20;99.90;;;;;;5022587;28;20038;-66
2021/11/14 04:39:07;;;;;;;67.20;36.17;;;9.20;99.90;;;;;;5019620;28;20060;-65
2021/11/14 04:41:33;;;;;;;69.55;36.47;;;9.20;99.90;;;;;;5023631;28;20140;-67
2021/11/14 04:43:58;;;;;;;65.63;36.60;;;9.20;99.90;;;;;;4995753;28;20049;-65
2021/11/14 04:46:24;;;;;;;67.65;36.92;;;9.20;99.90;;;;;;5026737;28;20438;-65
2021/11/14 04:48:50;;;;;;;66.55;36.75;;;9.20;99.90;;;;;;5016629;28;20041;-65
2021/11/14 04:51:16;;;;;;;68.65;37.42;;;9.20;99.90;;;;;;5017859;28;20033;-67
2021/11/14 04:53:42;;;;;;;74.07;37.67;;;9.20;99.90;;;;;;5017555;28;20057;-67
2021/11/14 04:56:07;;;;;;;75.00;36.53;;;9.20;99.90;;;;;;5015148;28;20045;-66
2021/11/14 04:58:33;;;;;;;71.78;37.38;;;9.20;99.90;;;;;;5022600;28;20044;-67
2021/11/14 05:00:59;;;;;;;70.63;36.55;;;9.20;99.90;;;;;;5004403;28;20053;-67
2021/11/14 05:03:25;;;;;;;68.65;36.83;;;9.20;99.90;;;;;;5017304;28;20034;-67
2021/11/14 05:05:51;;;;;;;74.03;37.58;;;9.20;99.90;;;;;;4999779;28;20135;-67
2021/11/14 05:08:17;;;;;;;77.18;38.67;;;9.20;99.90;;;;;;5019344;28;20052;-67
2021/11/14 05:10:44;;;;;;;79.90;39.05;;;9.20;99.90;;;;;;5014017;28;20034;-67
2021/11/14 05:13:10;;;;;;;78.35;39.08;;;9.20;99.90;;;;;;5021231;28;20034;-67
2021/11/14 05:15:36;;;;;;;75.28;38.25;;;9.20;99.90;;;;;;4998507;28;20574;-67
2021/11/14 05:18:03;;;;;;;74.47;38.70;;;9.20;99.90;;;;;;5024096;28;20046;-67
2021/11/14 05:20:29;;;;;;;71.38;36.75;;;9.20;99.90;;;;;;5009911;28;20045;-66
2021/11/14 05:22:54;;;;;;;70.38;37.13;;;9.20;99.90;;;;;;5023368;28;20041;-66
2021/11/14 05:25:21;;;;;;;61.70;34.58;;;9.20;99.90;;;;;;5012240;28;20406;-66
2021/11/14 05:27:47;;;;;;;60.55;33.42;;;9.10;99.90;;;;;;5021302;28;20041;-67
2021/11/14 05:30:13;;;;;;;53.95;31.60;;;9.10;99.90;;;;;;5021025;28;20116;-67
2021/11/14 05:32:39;;;;;;;52.95;31.50;;;9.10;99.90;;;;;;5023498;28;20128;-67
2021/11/14 05:35:08;;;;;;;53.05;31.35;;;9.00;99.90;;;;;;5017746;28;20519;-67
2021/11/14 05:37:34;;;;;;;54.97;30.65;;;9.10;99.90;;;;;;5012307;28;20513;-67
2021/11/14 05:40:00;;;;;;;50.83;29.25;;;9.10;99.90;;;;;;5018755;28;20056;-67
2021/11/14 05:42:25;;;;;;;50.70;28.95;;;9.10;99.90;;;;;;5013047;28;20116;-67
2021/11/14 05:44:51;;;;;;;49.72;26.77;;;9.10;99.90;;;;;;5003913;28;20048;-67
2021/11/14 05:47:17;;;;;;;46.30;28.48;;;9.10;99.90;;;;;;5018273;28;20030;-67
2021/11/14 05:49:43;;;;;;;44.63;28.73;;;9.10;99.90;;;;;;5024565;28;20033;-67
2021/11/14 05:52:08;;;;;;;41.83;27.15;;;9.10;99.90;;;;;;5014480;28;20433;-67
2021/11/14 05:54:34;;;;;;;47.50;27.20;;;9.10;99.90;;;;;;5017832;28;20033;-67
2021/11/14 05:57:00;;;;;;;51.25;28.75;;;9.10;99.90;;;;;;4996651;28;20183;-67
2021/11/14 06:02:10;;;;;;;50.97;29.42;;;9.10;99.90;;;;;;5019676;28;20411;-66
2021/11/14 06:04:49;;;;;;;55.83;29.40;;;9.10;99.90;;;;;;5018924;28;20761;-66
2021/11/14 06:07:14;;;;;;;56.53;30.75;;;9.10;99.90;;;;;;5010959;28;20096;-66
2021/11/14 06:09:40;;;;;;;55.75;28.60;;;9.00;99.90;;;;;;5019181;28;20029;-66
2021/11/14 06:12:06;;;;;;;57.30;30.42;;;9.00;99.90;;;;;;5017511;28;20045;-66
2021/11/14 06:14:33;;;;;;;56.53;30.17;;;9.00;99.90;;;;;;5002039;28;20699;-66
2021/11/14 06:17:00;;;;;;;60.33;31.08;;;9.00;99.90;;;;;;5023429;28;20061;-66
2021/11/14 06:19:26;;;;;;;59.38;31.45;;;8.90;99.90;;;;;;5002247;28;20095;-66
2021/11/14 06:21:52;;;;;;;58.10;30.55;;;9.00;99.90;;;;;;5015491;28;20046;-66
2021/11/14 06:24:18;;;;;;;68.20;33.30;;;9.00;99.90;;;;;;5012830;28;20063;-66
2021/11/14 06:26:44;;;;;;;68.57;32.95;;;9.00;99.90;;;;;;5004348;28;20396;-66
2021/11/14 06:29:11;;;;;;;66.15;32.58;;;9.00;99.90;;;;;;5021257;28;20037;-66
2021/11/14 06:31:37;;;;;;;68.10;32.60;;;9.00;99.90;;;;;;5006014;28;20052;-66
2021/11/14 06:34:03;;;;;;;70.70;34.22;;;9.00;99.90;;;;;;5021062;28;20045;-66
2021/11/14 06:36:28;;;;;;;72.80;32.83;;;9.00;99.90;;;;;;5020650;28;20397;-66
2021/11/14 06:38:54;;;;;;;71.25;34.63;;;9.00;99.90;;;;;;5017487;28;20122;-66
2021/11/14 06:41:20;;;;;;;65.43;32.47;;;9.00;99.90;;;;;;5028619;28;20447;-66
2021/11/14 06:43:46;;;;;;;63.30;31.45;;;9.00;99.90;;;;;;5019701;28;20041;-66
2021/11/14 06:46:12;;;;;;;68.55;33.22;;;9.00;99.90;;;;;;5009447;28;20129;-67
2021/11/14 06:48:38;;;;;;;68.70;34.00;;;9.00;99.90;;;;;;5020733;28;20125;-67
2021/11/14 06:51:04;;;;;;;68.10;34.13;;;9.00;99.90;;;;;;5022854;28;20177;-67
2021/11/14 06:53:30;;;;;;;72.22;33.05;;;9.00;99.90;;;;;;5007496;28;20124;-67
2021/11/14 06:55:56;;;;;;;67.78;32.50;;;9.00;99.90;;;;;;5004675;28;20494;-67
2021/11/14 06:58:22;;;;;;;73.43;34.60;;;9.00;99.90;;;;;;5022388;28;20041;-67
2021/11/14 07:00:48;;;;;;;75.95;34.30;;;9.00;99.90;;;;;;5021655;28;20069;-67
2021/11/14 07:03:14;;;;;;;72.93;33.88;;;9.00;99.90;;;;;;5026954;28;20033;-67
2021/11/14 07:05:40;;;;;;;69.22;32.75;;;9.00;99.90;;;;;;5002549;28;20502;-67
2021/11/14 07:08:06;;;;;;;70.18;32.50;;;9.00;99.90;;;;;;5027605;28;20064;-67
2021/11/14 07:10:32;;;;;;;72.13;34.42;;;8.90;99.90;;;;;;5022826;28;20072;-67
2021/11/14 07:12:58;;;;;;;68.82;33.80;;;8.90;99.90;;;;;;5005710;28;20037;-67
2021/11/14 07:15:24;;;;;;;67.43;33.38;;;9.00;99.90;;;;;;5021189;28;20073;-67
2021/11/14 07:17:50;;;;;;;65.68;32.97;;;9.00;99.90;;;;;;5026352;28;20115;-67
2021/11/14 07:20:16;;;;;;;65.32;34.03;;;9.00;99.90;;;;;;5020802;28;20119;-67
2021/11/14 07:22:44;;;;;;;64.68;31.85;;;9.00;99.90;;;;;;5003595;28;20521;-67
2021/11/14 07:25:14;;;;;;;55.83;28.52;;;9.00;99.90;;;;;;5007116;28;20041;-67
2021/11/14 07:27:42;;;;;;;54.58;29.25;;;9.00;99.90;;;;;;5029498;28;20033;-67
2021/11/14 07:30:10;;;;;;;56.95;28.95;;;9.00;99.90;;;;;;5028540;28;20493;-67
2021/11/14 07:32:35;;;;;;;55.55;29.08;;;8.90;99.90;;;;;;5024800;28;20087;-67
2021/11/14 07:35:01;;;;;;;49.33;26.17;;;8.90;99.90;;;;;;5029577;28;20030;-67
2021/11/14 07:37:27;;;;;;;52.30;27.90;;;8.90;99.90;;;;;;5024782;28;20055;-67
2021/11/14 07:39:53;;;;;;;49.03;27.33;;;8.90;99.90;;;;;;5008672;28;20116;-67
2021/11/14 07:42:18;;;;;;;48.72;28.05;;;8.90;99.90;;;;;;5024249;28;20124;-67
2021/11/14 07:44:45;;;;;;;47.17;26.35;;;9.00;99.90;;;;;;5015074;28;20065;-67
2021/11/14 07:47:11;;;;;;;47.15;27.17;;;8.90;99.90;;;;;;5017670;28;20070;-67
2021/11/14 07:49:37;;;;;;;42.45;25.40;;;8.90;99.90;;;;;;5032193;28;20063;-67
2021/11/14 07:52:03;;;;;;;44.80;27.48;;;8.90;99.90;;;;;;5022587;28;20045;-65
2021/11/14 07:54:28;;;;;;;47.25;26.38;;;8.90;99.90;;;;;;5029505;28;20116;-65
2021/11/14 07:56:54;;;;;;;42.75;25.05;;;8.90;99.90;;;;;;5004789;28;20137;-66
2021/11/14 07:59:20;;;;;;;42.20;25.30;;;8.90;99.90;;;;;;5029674;28;20041;-65
2021/11/14 08:01:45;;;;;;;46.95;26.15;;;8.80;99.90;;;;;;5018252;28;20033;-66
2021/11/14 08:04:11;;;;;;;45.35;25.42;;;8.80;99.90;;;;;;5027981;28;20030;-66
2021/11/14 08:06:37;;;;;;;45.30;25.05;;;8.80;99.90;;;;;;5023698;28;20045;-66
2021/11/14 08:09:04;;;;;;;45.10;24.17;;;8.90;99.90;;;;;;5024347;28;20409;-66
2021/11/14 08:11:30;;;;;;;46.17;25.17;;;8.90;99.90;;;;;;5027683;28;20038;-66
2021/11/14 08:13:56;;;;;;;45.03;25.45;;;8.90;99.90;;;;;;5018268;28;20480;-66
2021/11/14 08:16:22;;;;;;;49.15;26.42;;;8.90;99.90;;;;;;5027000;28;20038;-66
2021/11/14 08:18:47;;;;;;;50.40;24.13;;;8.90;99.90;;;;;;5004370;28;20485;-66
2021/11/14 08:21:13;;;;;;;46.40;24.50;;;8.90;99.90;;;;;;5028656;28;20508;-66
2021/11/14 08:23:39;;;;;;;39.13;21.40;;;8.90;99.90;;;;;;5003273;28;20061;-66
2021/11/14 08:26:04;;;;;;;39.85;22.23;;;8.90;99.90;;;;;;5030775;28;20034;-67
2021/11/14 08:28:30;;;;;;;42.15;23.48;;;8.90;99.90;;;;;;5021181;28;20082;-66
2021/11/14 08:30:56;;;;;;;43.25;23.75;;;8.90;99.90;;;;;;5024708;28;20471;-66
2021/11/14 08:33:23;;;;;;;42.00;23.17;;;8.80;99.90;;;;;;5000898;28;20064;-66
2021/11/14 08:35:48;;;;;;;41.95;23.27;;;8.90;99.90;;;;;;5023851;28;20394;-66
2021/11/14 08:38:14;;;;;;;42.97;22.55;;;8.80;99.90;;;;;;5003776;28;20056;-66
2021/11/14 08:40:40;;;;;;;40.55;22.67;;;8.90;99.90;;;;;;5027257;28;20060;-66
2021/11/14 08:43:07;;;;;;;38.10;21.75;;;8.90;99.90;;;;;;5016763;28;20537;-66
2021/11/14 08:45:34;;;;;;;36.13;21.73;;;9.00;99.90;;;;;;5022020;28;20370;-66
2021/11/14 08:48:01;;;;;;;33.08;20.98;;;8.90;99.90;;;;;;5024980;28;20042;-66
2021/11/14 08:50:27;;;;;;;33.22;20.67;;;8.90;99.90;;;;;;5022548;28;20041;-66
2021/11/14 08:52:57;;;;;;;33.05;20.48;;;8.90;99.90;;;;;;5028581;28;20095;-66
2021/11/14 08:55:26;;;;;;;29.88;19.90;;;8.90;99.90;;;;;;5022331;28;20429;-66
2021/11/14 08:57:53;;;;;;;35.70;23.02;;;8.90;99.90;;;;;;5008584;28;20132;-66
2021/11/14 09:00:22;;;;;;;38.28;23.85;;;8.90;99.90;;;;;;5005896;28;20050;-66
2021/11/14 09:02:50;;;;;;;36.50;24.25;;;8.90;99.90;;;;;;5007467;28;20064;-66
2021/11/14 09:05:21;;;;;;;39.75;24.45;;;8.90;99.90;;;;;;5017745;28;20042;-66
2021/11/14 09:07:48;;;;;;;39.55;25.15;;;8.90;99.90;;;;;;5010403;28;20053;-66
2021/11/14 09:10:14;;;;;;;42.05;25.85;;;8.90;99.90;;;;;;5021484;28;20034;-66
2021/11/14 09:12:40;;;;;;;41.80;25.17;;;9.00;99.90;;;;;;5005166;28;20087;-66
2021/11/14 09:15:07;;;;;;;44.47;26.27;;;9.00;99.90;;;;;;5004662;28;20440;-66
2021/11/14 09:17:33;;;;;;;45.88;27.23;;;9.00;99.90;;;;;;5006769;28;20119;-66
2021/11/14 09:19:59;;;;;;;42.58;27.35;;;9.00;99.90;;;;;;5018768;28;20488;-66
2021/11/14 09:22:25;;;;;;;44.65;28.85;;;9.00;99.90;;;;;;5021183;28;20037;-66
2021/11/14 09:24:50;;;;;;;38.08;25.80;;;9.00;99.90;;;;;;5015215;28;20619;-67
2021/11/14 09:27:16;;;;;;;44.22;27.33;;;9.00;99.90;;;;;;5026073;28;20717;-66
2021/11/14 09:29:42;;;;;;;42.28;28.25;;;9.00;99.90;;;;;;5029021;28;20073;-67
2021/11/14 09:32:08;;;;;;;42.80;26.58;;;9.00;99.90;;;;;;5016773;28;20033;-67
2021/11/14 09:34:35;;;;;;;39.75;26.45;;;9.00;99.90;;;;;;5018378;28;20437;-66
2021/11/14 09:37:01;;;;;;;41.78;27.13;;;9.10;99.90;;;;;;5018625;28;20037;-67
2021/11/14 09:39:27;;;;;;;39.47;26.50;;;9.10;99.90;;;;;;5007823;28;20481;-66
2021/11/14 09:41:54;;;;;;;42.28;28.17;;;9.20;99.90;;;;;;5021477;28;20049;-68
2021/11/14 09:44:20;;;;;;;36.67;26.08;;;9.20;99.90;;;;;;5023032;28;20120;-67
2021/11/14 09:46:52;;;;;;;35.05;24.98;;;9.20;99.90;;;;;;5021567;28;20049;-67
2021/11/14 09:49:20;;;;;;;36.38;26.73;;;9.20;99.90;;;;;;5010955;28;20071;-67
2021/11/14 09:51:48;;;;;;;33.45;26.23;;;9.20;99.90;;;;;;5004451;28;20045;-67
2021/11/14 09:54:14;;;;;;;37.40;25.83;;;9.20;99.90;;;;;;5023754;28;20094;-67
2021/11/14 09:56:39;;;;;;;38.15;26.58;;;9.30;99.90;;;;;;4999154;28;20052;-67
2021/11/14 09:59:06;;;;;;;37.05;26.20;;;9.30;99.90;;;;;;5007133;28;20489;-66
2021/11/14 10:01:32;;;;;;;34.75;26.05;;;9.30;99.90;;;;;;5002947;28;20194;-67
2021/11/14 10:03:58;;;;;;;37.40;26.55;;;9.30;99.90;;;;;;5027358;28;20469;-67
2021/11/14 10:06:26;;;;;;;38.60;26.55;;;9.30;99.90;;;;;;5017226;28;20124;-67
2021/11/14 10:08:52;;;;;;;32.80;24.58;;;9.30;99.90;;;;;;5004205;28;20507;-67
2021/11/14 10:11:18;;;;;;;34.85;25.65;;;9.30;99.90;;;;;;5008202;28;20104;-67
2021/11/14 10:13:48;;;;;;;34.58;25.83;;;9.30;99.90;;;;;;4996112;28;20037;-67
2021/11/14 10:16:21;;;;;;;36.17;25.73;;;9.20;99.90;;;;;;5009775;28;20087;-67
2021/11/14 10:19:06;;;;;;;36.15;24.92;;;9.30;99.90;;;;;;5004464;28;20033;-67
2021/11/14 10:21:34;;;;;;;34.92;26.35;;;9.30;99.90;;;;;;5009905;28;20096;-67
2021/11/14 10:24:05;;;;;;;37.38;25.50;;;9.30;99.90;;;;;;5001772;28;20089;-67
2021/11/14 10:26:32;;;;;;;34.88;25.83;;;9.30;99.90;;;;;;5008888;28;20037;-66
2021/11/14 10:29:06;;;;;;;33.70;26.10;;;9.30;99.90;;;;;;5018258;28;20148;-66
2021/11/14 10:31:33;;;;;;;34.35;24.80;;;9.30;99.90;;;;;;5024791;28;20128;-66
2021/11/14 10:34:00;;;;;;;33.05;24.75;;;9.40;99.90;;;;;;5003241;28;20062;-66
2021/11/14 10:36:26;;;;;;;34.75;26.83;;;9.40;99.90;;;;;;5024587;28;20116;-67
2021/11/14 10:39:07;;;;;;;36.67;27.45;;;9.40;99.90;;;;;;5013169;28;20060;-67
2021/11/14 10:41:33;;;;;;;38.00;27.80;;;9.40;99.90;;;;;;5020965;28;20471;-66
2021/11/14 10:44:13;;;;;;;42.67;30.55;;;9.40;99.90;;;;;;5020678;28;20060;-67
2021/11/14 10:46:39;;;;;;;40.15;30.02;;;9.40;99.90;;;;;;5019932;28;20049;-67
2021/11/14 10:49:07;;;;;;;41.30;30.83;;;9.50;99.90;;;;;;5023081;28;20030;-67
2021/11/14 10:51:34;;;;;;;42.55;30.42;;;9.50;99.90;;;;;;5021121;28;20113;-67
2021/11/14 10:54:01;;;;;;;38.33;29.50;;;9.50;99.90;;;;;;5020135;28;20045;-67
2021/11/14 10:56:26;;;;;;;41.53;29.67;;;9.50;99.90;;;;;;5030593;28;20041;-67
2021/11/14 10:58:54;;;;;;;42.88;30.75;;;9.50;99.90;;;;;;5004676;28;20063;-67
2021/11/14 11:01:20;;;;;;;45.17;30.95;;;9.40;99.90;;;;;;5010339;28;20494;-67
2021/11/14 11:03:51;;;;;;;42.55;30.35;;;9.40;99.90;;;;;;5006707;28;20053;-67
2021/11/14 11:06:23;;;;;;;39.97;29.38;;;9.40;99.90;;;;;;5007259;28;20077;-67
2021/11/14 11:08:49;;;;;;;43.63;30.67;;;9.40;99.90;;;;;;5021843;28;20095;-67
2021/11/14 11:11:20;;;;;;;40.03;29.30;;;9.40;99.90;;;;;;5013214;28;20045;-67
2021/11/14 11:13:48;;;;;;;44.38;32.05;;;9.40;99.90;;;;;;5021839;28;20045;-67
2021/11/14 11:16:23;;;;;;;44.80;31.73;;;9.50;99.90;;;;;;5028762;28;20045;-67
2021/11/14 11:19:01;;;;;;;46.00;32.40;;;9.50;99.90;;;;;;5028563;28;20116;-66
2021/11/14 11:21:40;;;;;;;46.38;31.77;;;9.50;99.90;;;;;;5024597;28;20069;-66
2021/11/14 11:24:14;;;;;;;43.50;31.77;;;9.50;99.90;;;;;;5026497;28;20041;-66
2021/11/14 11:26:52;;;;;;;45.10;31.88;;;9.60;99.90;;;;;;5011256;28;20041;-66
2021/11/14 11:29:19;;;;;;;49.08;32.95;;;9.50;99.90;;;;;;5027473;28;20436;-66
2021/11/14 11:31:49;;;;;;;45.15;33.22;;;9.60;99.90;;;;;;5022360;28;20474;-66
2021/11/14 11:34:17;;;;;;;43.25;32.42;;;9.60;99.90;;;;;;5029739;28;20033;-67
2021/11/14 11:36:44;;;;;;;45.75;32.17;;;9.60;99.90;;;;;;5006355;28;20119;-67
2021/11/14 11:39:10;;;;;;;42.00;32.50;;;9.60;99.90;;;;;;5025252;28;20103;-67
2021/11/14 11:41:36;;;;;;;40.45;32.30;;;9.70;99.90;;;;;;5007531;28;20057;-67
2021/11/14 11:44:03;;;;;;;44.58;31.95;;;9.70;99.90;;;;;;5009680;28;20061;-67
2021/11/14 11:46:32;;;;;;;50.97;34.92;;;9.70;99.90;;;;;;5020548;28;20163;-67
2021/11/14 11:49:01;;;;;;;48.33;34.90;;;9.70;99.90;;;;;;5020963;28;20128;-67
2021/11/14 11:51:32;;;;;;;44.83;32.78;;;9.70;99.90;;;;;;5023184;28;20095;-66
2021/11/14 11:54:10;;;;;;;48.80;33.03;;;9.60;99.90;;;;;;5027453;28;20045;-66
2021/11/14 11:56:40;;;;;;;45.80;33.30;;;9.60;99.90;;;;;;5020868;28;20124;-66
2021/11/14 11:59:13;;;;;;;43.50;33.60;;;9.60;99.90;;;;;;5026825;28;20037;-65
2021/11/14 12:01:51;;;;;;;48.00;32.72;;;9.70;99.90;;;;;;4998888;28;20567;-66
2021/11/14 12:04:26;;;;;;;47.55;34.85;;;9.70;99.90;;;;;;5028945;28;20118;-66
2021/11/14 12:07:01;;;;;;;43.35;31.95;;;9.70;99.90;;;;;;5019876;28;20501;-66
2021/11/14 12:09:43;;;;;;;46.70;32.88;;;9.70;99.90;;;;;;5025464;28;20049;-66
2021/11/14 12:12:27;;;;;;;46.60;32.00;;;9.70;99.90;;;;;;5017904;28;20029;-66
2021/11/14 12:15:04;;;;;;;43.45;32.08;;;9.70;99.90;;;;;;5027467;28;20033;-66
2021/11/14 12:17:30;;;;;;;46.03;33.75;;;9.70;99.90;;;;;;5002341;28;20152;-66
2021/11/14 12:20:09;;;;;;;44.15;31.70;;;9.70;99.90;;;;;;5011355;28;20061;-66
2021/11/14 12:22:47;;;;;;;45.78;33.83;;;9.80;99.90;;;;;;5023612;28;20144;-66
2021/11/14 12:25:44;;;;;;;43.53;31.88;;;9.80;99.90;;;;;;5007550;28;20379;-67
2021/11/14 12:28:16;;;;;;;46.28;32.97;;;9.80;99.90;;;;;;4997818;28;20065;-67
2021/11/14 12:31:08;;;;;;;44.08;32.05;;;9.80;99.90;;;;;;5009336;28;20034;-67
2021/11/14 12:33:49;;;;;;;44.60;31.60;;;9.80;99.90;;;;;;5023376;28;20045;-67
2021/11/14 12:36:38;;;;;;;44.67;32.63;;;9.80;99.90;;;;;;5003770;28;20100;-67
2021/11/14 12:39:25;;;;;;;47.05;33.20;;;9.80;99.90;;;;;;5019122;28;20084;-67
2021/11/14 12:42:00;;;;;;;51.33;33.55;;;9.80;99.90;;;;;;5025912;28;20727;-67